Bretagne — FNBR — position and weather

sailwx.info

Track history (hours):
 
Tides and Currents Weather Stations Pressure Air Temp Water Temp Dewpoint Dewpoint Depression Visibility Wind Speed Wind Dir Waves Ship Positions

Bretagne

Operator: Brittany Ferries

Last reported at 2014-Nov-26 22:33 UTC. Time now 2014-Nov-27 09:31 UTC.
Position N 50°26' W 001°19'.

Length 151 m; beam 27 m.

Type: Passenger vessel. MMSI: 227286000.

Date/timePositionNaut miles runAvg speedWind from/ knotsBaromVisibWave heightAir tempDewpointWater temp
2014-Nov-26 22:33N 50°26' W 001°19'1212.5
2014-Nov-26 21:33N 50°36' W 001°08'1111.0
2014-Nov-26 20:33N 50°47' W 001°06'2 1.6
2014-Nov-26 19:30N 50°49' W 001°06'0 0.0
2014-Nov-26 18:33N 50°49' W 001°06'0 0.0
2014-Nov-26 17:30N 50°49' W 001°06'0 0.0
2014-Nov-26 16:33N 50°49' W 001°06'0 0.0
2014-Nov-26 15:30N 50°49' W 001°06'0 0.0
2014-Nov-26 14:30N 50°49' W 001°06'0 0.0
2014-Nov-26 13:30N 50°49' W 001°06'0 0.0
2014-Nov-26 12:30N 50°49' W 001°06'0 0.0
2014-Nov-26 11:30N 50°49' W 001°06'0 0.0
2014-Nov-26 10:30N 50°49' W 001°06'0 0.0
2014-Nov-26 09:33N 50°49' W 001°06'0 0.0
2014-Nov-26 08:30N 50°49' W 001°06'1 0.7
2014-Nov-26 07:33N 50°49' W 001°07'1212.2
2014-Nov-26 06:33N 50°37' W 001°00'  
2014-Nov-19 23:13N 50°18' W 001°28'811.8
2014-Nov-19 22:32N 50°25' W 001°22'1414.0
2014-Nov-19 21:33N 50°36' W 001°09'1212.1
2014-Nov-19 20:34N 50°48' W 001°07'1 1.3
2014-Nov-19 19:33N 50°49' W 001°06'0 0.0
2014-Nov-19 18:33N 50°49' W 001°06'0 0.0
2014-Nov-19 17:33N 50°49' W 001°06'0 0.0
2014-Nov-19 16:33N 50°49' W 001°06'0 0.0
2014-Nov-19 15:33N 50°49' W 001°06'0 0.0
2014-Nov-19 14:34N 50°49' W 001°06'0 0.0
2014-Nov-19 13:33N 50°49' W 001°06'0 0.0
2014-Nov-19 12:33N 50°49' W 001°06'0 0.0
2014-Nov-19 11:33N 50°49' W 001°06'0 0.0
2014-Nov-19 10:34N 50°49' W 001°06'0 0.0
2014-Nov-19 09:33N 50°49' W 001°06'0 0.0
2014-Nov-19 08:33N 50°49' W 001°06'0 0.0
2014-Nov-19 07:33N 50°49' W 001°06'8 8.1
2014-Nov-19 06:34N 50°41' W 001°03'  
Track history (hours):
 
Tides and Currents Weather Stations Pressure Air Temp Water Temp Dewpoint Dewpoint Depression Visibility Wind Speed Wind Dir Waves Ship Positions

Bretagne

Operator: Brittany Ferries

Last reported at 2014-Nov-26 22:33 UTC. Time now 2014-Nov-27 09:31 UTC.
Position N 50°26' W 001°19'.

Length 151 m; beam 27 m.

Type: Passenger vessel. MMSI: 227286000.

Date/timePositionNaut miles runAvg speedWind from/ knotsBaromVisibWave heightAir tempDewpointWater temp
2014-Nov-26 22:33N 50°26' W 001°19'1212.5
2014-Nov-26 21:33N 50°36' W 001°08'1111.0
2014-Nov-26 20:33N 50°47' W 001°06'2 1.6
2014-Nov-26 19:30N 50°49' W 001°06'0 0.0
2014-Nov-26 18:33N 50°49' W 001°06'0 0.0
2014-Nov-26 17:30N 50°49' W 001°06'0 0.0
2014-Nov-26 16:33N 50°49' W 001°06'0 0.0
2014-Nov-26 15:30N 50°49' W 001°06'0 0.0
2014-Nov-26 14:30N 50°49' W 001°06'0 0.0
2014-Nov-26 13:30N 50°49' W 001°06'0 0.0
2014-Nov-26 12:30N 50°49' W 001°06'0 0.0
2014-Nov-26 11:30N 50°49' W 001°06'0 0.0
2014-Nov-26 10:30N 50°49' W 001°06'0 0.0
2014-Nov-26 09:33N 50°49' W 001°06'0 0.0
2014-Nov-26 08:30N 50°49' W 001°06'1 0.7
2014-Nov-26 07:33N 50°49' W 001°07'1212.2
2014-Nov-26 06:33N 50°37' W 001°00'  
2014-Nov-19 23:13N 50°18' W 001°28'811.8
2014-Nov-19 22:32N 50°25' W 001°22'1414.0
2014-Nov-19 21:33N 50°36' W 001°09'1212.1
2014-Nov-19 20:34N 50°48' W 001°07'1 1.3
2014-Nov-19 19:33N 50°49' W 001°06'0 0.0
2014-Nov-19 18:33N 50°49' W 001°06'0 0.0
2014-Nov-19 17:33N 50°49' W 001°06'0 0.0
2014-Nov-19 16:33N 50°49' W 001°06'0 0.0
2014-Nov-19 15:33N 50°49' W 001°06'0 0.0
2014-Nov-19 14:34N 50°49' W 001°06'0 0.0
2014-Nov-19 13:33N 50°49' W 001°06'0 0.0
2014-Nov-19 12:33N 50°49' W 001°06'0 0.0
2014-Nov-19 11:33N 50°49' W 001°06'0 0.0
2014-Nov-19 10:34N 50°49' W 001°06'0 0.0
2014-Nov-19 09:33N 50°49' W 001°06'0 0.0
2014-Nov-19 08:33N 50°49' W 001°06'0 0.0
2014-Nov-19 07:33N 50°49' W 001°06'8 8.1
2014-Nov-19 06:34N 50°41' W 001°03'  

Dump ship's entire track history